createdAt,value
2022-12-13T00:02:14.437Z,21.43
2022-12-13T00:07:16.141Z,20.10
2022-12-13T00:12:19.059Z,23.63
2022-12-13T00:17:20.840Z,22.17
2022-12-13T00:22:22.495Z,20.53
2022-12-13T00:27:24.228Z,17.43
2022-12-13T00:32:25.925Z,17.13
2022-12-13T00:37:27.591Z,18.10
2022-12-13T00:42:29.240Z,18.33
2022-12-13T00:47:30.917Z,17.80
2022-12-13T00:52:34.661Z,18.27
2022-12-13T00:57:36.425Z,19.87
2022-12-13T01:02:38.198Z,16.37
2022-12-13T01:07:44.499Z,18.17
2022-12-13T01:12:47.259Z,17.73
2022-12-13T01:17:49.521Z,21.90
2022-12-13T01:22:51.184Z,21.23
2022-12-13T01:27:52.865Z,23.70
2022-12-13T01:32:54.644Z,23.27
2022-12-13T01:37:56.300Z,24.80
2022-12-13T01:43:00.016Z,20.90
2022-12-13T01:48:07.603Z,22.20
2022-12-13T01:53:14.919Z,22.40
2022-12-13T01:58:17.517Z,30.23
2022-12-13T02:03:22.150Z,26.40
2022-12-13T02:08:25.480Z,26.87
2022-12-13T02:13:27.243Z,28.70
2022-12-13T02:18:50.491Z,22.03
2022-12-13T02:24:13.844Z,25.00
2022-12-13T02:30:03.106Z,25.83
2022-12-13T02:35:29.556Z,19.20
2022-12-13T02:40:39.679Z,25.33
2022-12-13T02:45:46.712Z,26.13
2022-12-13T02:50:49.950Z,27.67
2022-12-13T02:55:51.688Z,26.17
2022-12-13T03:01:27.970Z,28.53
2022-12-13T03:06:34.749Z,26.40
2022-12-13T03:12:32.412Z,25.40
2022-12-13T03:17:44.145Z,26.90
2022-12-13T03:22:45.859Z,30.47
2022-12-13T03:27:47.534Z,23.00
2022-12-13T03:32:49.206Z,28.20
2022-12-13T03:37:51.350Z,28.53
2022-12-13T03:42:53.016Z,32.93
2022-12-13T03:47:54.673Z,28.43
2022-12-13T03:53:04.008Z,32.17
2022-12-13T03:58:07.964Z,31.13
2022-12-13T04:03:09.983Z,29.33
2022-12-13T04:08:21.551Z,25.97
2022-12-13T04:13:35.108Z,32.27
2022-12-13T04:18:36.798Z,27.37
2022-12-13T04:23:38.504Z,30.70
2022-12-13T04:28:40.185Z,24.47
2022-12-13T04:33:41.845Z,30.07
2022-12-13T04:38:43.530Z,24.67
2022-12-13T04:43:50.193Z,27.23
2022-12-13T04:48:51.871Z,24.50
2022-12-13T04:53:53.580Z,26.03
2022-12-13T04:58:55.293Z,27.40
2022-12-13T05:03:57.064Z,28.73
2022-12-13T05:09:00.627Z,29.77
2022-12-13T05:14:02.842Z,23.93
2022-12-13T05:19:04.671Z,26.07
2022-12-13T05:24:06.936Z,24.20
2022-12-13T05:29:08.649Z,27.10
2022-12-13T05:34:10.328Z,21.47
2022-12-13T05:39:29.401Z,21.20
2022-12-13T05:44:32.743Z,21.47
2022-12-13T05:49:34.508Z,24.67
2022-12-13T05:54:36.222Z,21.70
2022-12-13T05:59:37.880Z,24.13
2022-12-13T06:04:39.583Z,22.33
2022-12-13T06:09:41.559Z,20.67
2022-12-13T06:14:43.208Z,25.80
2022-12-13T06:19:46.477Z,27.58
2022-12-13T06:24:48.162Z,25.73
2022-12-13T06:29:49.953Z,25.70
2022-12-13T06:34:51.617Z,22.00
2022-12-13T06:39:53.314Z,21.93
2022-12-13T06:44:56.246Z,22.47
2022-12-13T06:49:58.121Z,19.20
2022-12-13T06:55:07.790Z,25.80
2022-12-13T07:00:10.343Z,17.93
2022-12-13T07:05:12.077Z,19.43
2022-12-13T07:10:22.485Z,20.40
2022-12-13T07:15:24.821Z,21.87
2022-12-13T07:20:26.571Z,23.33
2022-12-13T07:25:29.714Z,16.23
2022-12-13T07:30:34.551Z,15.97
2022-12-13T07:35:44.011Z,21.97
2022-12-13T07:40:45.756Z,20.83
2022-12-13T07:45:47.449Z,16.43
2022-12-13T07:50:54.554Z,22.00
2022-12-13T07:55:56.774Z,30.90
2022-12-13T08:01:03.649Z,20.63
2022-12-13T08:06:08.116Z,19.53
2022-12-13T08:11:12.766Z,19.63
2022-12-13T08:16:27.824Z,31.17
2022-12-13T08:21:54.490Z,26.57
2022-12-13T08:27:02.444Z,25.53
2022-12-13T08:32:09.006Z,30.33
2022-12-13T08:37:10.667Z,28.30
2022-12-13T08:42:18.176Z,36.17
2022-12-13T08:47:25.508Z,40.73
2022-12-13T08:52:28.185Z,28.17
2022-12-13T08:57:29.899Z,30.80
2022-12-13T09:02:31.620Z,33.70
2022-12-13T09:07:41.227Z,24.83
2022-12-13T09:12:43.206Z,24.83
2022-12-13T09:17:44.924Z,22.30
2022-12-13T09:23:01.729Z,30.57
2022-12-13T09:28:06.642Z,32.93
2022-12-13T09:33:18.165Z,33.87
2022-12-13T09:38:30.065Z,33.20
2022-12-13T09:43:42.990Z,38.53
2022-12-13T09:48:48.359Z,49.30
2022-12-13T09:53:52.776Z,31.93
2022-12-13T09:58:56.730Z,30.70
2022-12-13T10:04:00.075Z,28.10
2022-12-13T10:09:01.802Z,38.57
2022-12-13T10:14:12.844Z,29.37
2022-12-13T10:19:29.168Z,30.37
2022-12-13T10:25:00.204Z,23.20
2022-12-13T10:30:10.980Z,17.63
2022-12-13T10:35:20.844Z,15.60
2022-12-13T10:40:32.413Z,15.48
2022-12-13T10:45:35.310Z,10.40
2022-12-13T10:50:37.294Z,10.55
2022-12-13T10:55:39.104Z,7.82
2022-12-13T11:00:47.432Z,11.05
2022-12-13T11:06:03.252Z,10.02
2022-12-13T11:11:07.284Z,6.07
2022-12-13T11:16:26.844Z,7.75
2022-12-13T11:21:34.029Z,11.25
2022-12-13T11:26:39.420Z,13.20
2022-12-13T11:32:08.855Z,12.32
2022-12-13T11:37:13.327Z,13.05
2022-12-13T11:42:18.163Z,11.27
2022-12-13T11:47:26.935Z,10.40
2022-12-13T11:52:42.242Z,10.65
2022-12-13T11:57:55.483Z,10.32
2022-12-13T12:03:06.621Z,11.73
2022-12-13T12:08:40.617Z,15.20
2022-12-13T12:14:09.451Z,9.60
2022-12-13T12:19:14.717Z,10.77
2022-12-13T12:24:29.723Z,23.40
2022-12-13T12:29:46.583Z,7.82
2022-12-13T12:35:03.024Z,8.95
2022-12-13T12:41:15.798Z,9.18
2022-12-13T12:46:20.126Z,10.55
2022-12-13T12:51:28.808Z,9.48
2022-12-13T12:56:43.869Z,9.32
2022-12-13T13:02:07.312Z,7.53
2022-12-13T13:07:23.092Z,6.35
2022-12-13T13:12:29.034Z,7.72
2022-12-13T13:17:32.176Z,12.07
2022-12-13T13:22:44.322Z,7.40
2022-12-13T13:27:48.643Z,12.20
2022-12-13T13:32:53.307Z,14.10
2022-12-13T13:38:05.496Z,13.07
2022-12-13T13:43:10.201Z,14.45
2022-12-13T13:48:42.987Z,13.60
2022-12-13T13:53:44.594Z,12.43
2022-12-13T13:58:58.156Z,13.87
2022-12-13T14:04:18.293Z,21.77
2022-12-13T14:09:42.104Z,15.37
2022-12-13T14:15:01.299Z,15.15
2022-12-13T14:20:18.221Z,13.50
2022-12-13T14:25:52.330Z,13.07
2022-12-13T14:30:57.586Z,11.73
2022-12-13T14:36:01.795Z,10.83
2022-12-13T14:41:03.627Z,11.90
2022-12-13T14:46:07.253Z,13.73
2022-12-13T14:51:30.697Z,10.77
2022-12-13T14:56:32.901Z,9.05
2022-12-13T15:01:36.917Z,9.55
2022-12-13T15:06:39.574Z,11.07
2022-12-13T15:11:44.110Z,11.00
2022-12-13T15:16:50.584Z,9.77
2022-12-13T15:22:01.566Z,10.67
2022-12-13T15:27:08.226Z,13.60
2022-12-13T15:32:19.149Z,13.30
2022-12-13T15:37:28.220Z,17.83
2022-12-13T15:42:38.511Z,19.05
2022-12-13T15:47:45.559Z,16.80
2022-12-13T15:52:47.862Z,16.50
2022-12-13T15:57:55.246Z,18.77
2022-12-13T16:03:11.560Z,32.83
2022-12-13T16:08:31.310Z,34.20
2022-12-13T16:13:37.944Z,38.30
2022-12-13T16:18:46.817Z,34.60
2022-12-13T16:23:49.263Z,33.87
2022-12-13T16:28:51.241Z,28.80
2022-12-13T16:33:53.907Z,31.20
2022-12-13T16:38:55.560Z,30.73
2022-12-13T16:44:00.742Z,26.77
2022-12-13T16:49:08.953Z,34.03
2022-12-13T16:54:10.614Z,46.00
2022-12-13T16:59:20.680Z,37.60
2022-12-13T17:04:24.483Z,51.60
2022-12-13T17:09:26.199Z,38.53
2022-12-13T17:14:27.878Z,37.10
2022-12-13T17:19:29.567Z,36.07
2022-12-13T17:24:31.336Z,42.47
2022-12-13T17:29:33.897Z,36.63
2022-12-13T17:34:35.614Z,50.35
2022-12-13T17:39:37.652Z,39.87
2022-12-13T17:44:39.745Z,47.10
2022-12-13T17:49:41.444Z,45.63
2022-12-13T17:54:43.201Z,50.77
2022-12-13T17:59:44.912Z,40.20
2022-12-13T18:04:46.624Z,48.57
2022-12-13T18:09:48.380Z,41.47
2022-12-13T18:14:51.922Z,45.90
2022-12-13T18:19:53.621Z,41.27
2022-12-13T18:24:55.273Z,37.43
2022-12-13T18:29:56.939Z,39.10
2022-12-13T18:34:58.612Z,32.83
2022-12-13T18:40:00.268Z,36.87
2022-12-13T18:45:02.290Z,36.67
2022-12-13T18:50:04.282Z,39.33
2022-12-13T18:55:06.656Z,38.93
2022-12-13T19:00:09.123Z,40.03
2022-12-13T19:05:10.846Z,40.63
2022-12-13T19:10:12.519Z,35.43
2022-12-13T19:15:15.315Z,48.67
2022-12-13T19:20:18.051Z,39.50
2022-12-13T19:25:20.809Z,43.43
2022-12-13T19:30:23.816Z,38.10
2022-12-13T19:35:26.063Z,33.00
2022-12-13T19:40:27.804Z,41.90
2022-12-13T19:45:29.510Z,37.90
2022-12-13T19:50:31.179Z,38.67
2022-12-13T19:55:35.689Z,42.43
2022-12-13T20:00:37.428Z,48.20
2022-12-13T20:05:45.337Z,53.20
2022-12-13T20:10:47.724Z,52.97
2022-12-13T20:15:49.657Z,51.83
2022-12-13T20:21:10.991Z,39.83
2022-12-13T20:26:15.176Z,49.13
2022-12-13T20:31:38.114Z,52.73
2022-12-13T20:36:41.198Z,51.63
2022-12-13T20:41:42.902Z,42.77
2022-12-13T20:46:44.667Z,51.97
2022-12-13T20:51:46.344Z,56.77
2022-12-13T20:56:48.030Z,38.83
2022-12-13T21:01:49.847Z,42.00
2022-12-13T21:06:51.548Z,38.63
2022-12-13T21:11:53.280Z,43.37
2022-12-13T21:16:57.435Z,37.30
2022-12-13T21:21:59.342Z,38.57
2022-12-13T21:27:01.183Z,40.07
2022-12-13T21:32:03.094Z,41.30
2022-12-13T21:37:05.812Z,49.03
2022-12-13T21:42:07.475Z,38.87
2022-12-13T21:47:12.243Z,36.33
2022-12-13T21:52:14.542Z,32.80
2022-12-13T21:57:34.589Z,34.67
2022-12-13T22:02:36.374Z,37.83
2022-12-13T22:07:38.537Z,31.40
2022-12-13T22:12:41.386Z,32.07
2022-12-13T22:17:43.288Z,31.90
2022-12-13T22:22:45.416Z,30.17
2022-12-13T22:27:47.116Z,31.00
2022-12-13T22:32:48.792Z,48.50
2022-12-13T22:37:50.443Z,35.30
2022-12-13T22:42:52.109Z,52.87
2022-12-13T22:47:54.492Z,51.73
2022-12-13T22:52:56.188Z,38.43
2022-12-13T22:57:57.856Z,42.53
2022-12-13T23:02:59.558Z,44.30
2022-12-13T23:08:01.301Z,36.77
2022-12-13T23:13:03.020Z,48.70
2022-12-13T23:18:04.733Z,33.57
2022-12-13T23:23:06.424Z,44.60
2022-12-13T23:28:08.097Z,41.27
2022-12-13T23:33:09.788Z,47.40
2022-12-13T23:38:11.465Z,48.30
2022-12-13T23:43:13.122Z,47.80
2022-12-13T23:48:14.774Z,50.23
2022-12-13T23:53:16.466Z,51.33
2022-12-13T23:58:22.411Z,45.77
